createdAt,value
2023-02-03T00:01:32.307Z,23.00
2023-02-03T00:04:19.015Z,20.90
2023-02-03T00:07:05.654Z,18.83
2023-02-03T00:09:52.266Z,21.13
2023-02-03T00:12:40.210Z,11.80
2023-02-03T00:15:26.835Z,13.13
2023-02-03T00:18:13.126Z,20.08
2023-02-03T00:20:59.762Z,13.88
2023-02-03T00:23:46.622Z,18.67
2023-02-03T00:26:32.975Z,11.93
2023-02-03T00:29:25.687Z,20.20
2023-02-03T00:32:12.631Z,16.88
2023-02-03T00:34:59.417Z,19.75
2023-02-03T00:37:51.902Z,11.00
2023-02-03T00:40:38.148Z,10.35
2023-02-03T00:43:24.786Z,15.40
2023-02-03T00:46:14.768Z,21.92
2023-02-03T00:49:01.391Z,17.23
2023-02-03T00:51:48.478Z,16.48
2023-02-03T00:54:35.097Z,16.77
2023-02-03T00:57:22.726Z,10.38
2023-02-03T01:00:10.720Z,18.70
2023-02-03T01:02:59.117Z,16.55
2023-02-03T01:05:45.894Z,18.45
2023-02-03T01:08:32.463Z,17.00
2023-02-03T01:11:20.844Z,16.40
2023-02-03T01:14:08.564Z,20.20
2023-02-03T01:16:56.409Z,16.08
2023-02-03T01:19:45.099Z,11.65
2023-02-03T01:22:31.990Z,19.60
2023-02-03T01:25:18.214Z,12.20
2023-02-03T01:28:05.991Z,12.32
2023-02-03T01:30:52.642Z,21.60
2023-02-03T01:33:40.892Z,14.20
2023-02-03T01:36:32.065Z,8.88
2023-02-03T01:39:18.716Z,10.23
2023-02-03T01:42:05.907Z,24.27
2023-02-03T01:44:52.896Z,20.20
2023-02-03T01:47:45.945Z,20.67
2023-02-03T01:50:35.417Z,12.27
2023-02-03T01:53:23.755Z,17.27
2023-02-03T01:56:10.786Z,12.20
2023-02-03T01:59:00.221Z,14.27
2023-02-03T02:01:47.875Z,14.73
2023-02-03T02:04:44.146Z,14.63
2023-02-03T02:07:33.567Z,10.23
2023-02-03T02:10:22.175Z,11.68
2023-02-03T02:13:08.409Z,12.88
2023-02-03T02:16:01.564Z,10.68
2023-02-03T02:19:01.143Z,8.73
2023-02-03T02:21:59.056Z,7.63
2023-02-03T02:25:15.621Z,13.50
2023-02-03T02:28:50.751Z,9.40
2023-02-03T02:31:51.686Z,11.93
2023-02-03T02:34:50.409Z,10.02
2023-02-03T02:37:45.902Z,6.32
2023-02-03T02:40:38.891Z,10.07
2023-02-03T02:43:37.406Z,9.18
2023-02-03T02:46:30.015Z,10.88
2023-02-03T02:49:24.494Z,8.68
2023-02-03T02:52:14.218Z,10.40
2023-02-03T02:55:06.527Z,10.30
2023-02-03T02:57:56.786Z,8.50
2023-02-03T03:00:45.816Z,10.45
2023-02-03T03:03:33.143Z,6.25
2023-02-03T03:06:27.198Z,8.75
2023-02-03T03:09:17.972Z,9.00
2023-02-03T03:14:58.979Z,15.05
2023-02-03T03:17:51.004Z,6.18
2023-02-03T03:20:42.868Z,8.55
2023-02-03T03:23:34.391Z,8.93
2023-02-03T03:26:28.737Z,11.93
2023-02-03T03:29:19.838Z,16.00
2023-02-03T03:32:07.024Z,9.02
2023-02-03T03:34:53.751Z,11.77
2023-02-03T03:37:45.053Z,16.05
2023-02-03T03:40:37.354Z,10.52
2023-02-03T03:43:29.341Z,6.30
2023-02-03T03:46:22.660Z,12.23
2023-02-03T03:49:11.710Z,10.30
2023-02-03T03:52:03.523Z,10.35
2023-02-03T03:54:52.241Z,9.88
2023-02-03T03:57:45.160Z,5.38
2023-02-03T04:00:34.699Z,9.93
2023-02-03T04:03:25.960Z,12.70
2023-02-03T04:06:14.781Z,7.75
2023-02-03T04:09:02.176Z,8.82
2023-02-03T04:12:05.950Z,9.68
2023-02-03T04:14:53.941Z,10.02
2023-02-03T04:17:40.425Z,5.15
2023-02-03T04:20:27.208Z,15.10
2023-02-03T04:23:14.208Z,9.13
2023-02-03T04:26:02.152Z,7.28
2023-02-03T04:28:48.959Z,9.98
2023-02-03T04:31:38.568Z,10.65
2023-02-03T04:34:25.244Z,5.07
2023-02-03T04:37:11.818Z,10.60
2023-02-03T04:39:58.252Z,6.97
2023-02-03T04:42:44.964Z,11.82
2023-02-03T04:45:31.547Z,13.35
2023-02-03T04:48:19.253Z,9.90
2023-02-03T04:51:07.732Z,7.50
2023-02-03T04:53:54.527Z,5.93
2023-02-03T04:56:41.033Z,7.72
2023-02-03T04:59:28.027Z,9.95
2023-02-03T05:02:14.700Z,9.48
2023-02-03T05:05:02.439Z,16.95
2023-02-03T05:07:49.085Z,7.80
2023-02-03T05:10:35.759Z,9.55
2023-02-03T05:13:22.323Z,8.88
2023-02-03T05:16:08.747Z,13.10
2023-02-03T05:18:55.575Z,8.00
2023-02-03T05:21:43.044Z,8.55
2023-02-03T05:24:29.424Z,7.28
2023-02-03T05:27:16.099Z,9.63
2023-02-03T05:30:02.813Z,8.48
2023-02-03T05:32:50.174Z,8.98
2023-02-03T05:35:36.729Z,9.65
2023-02-03T05:38:25.452Z,9.27
2023-02-03T05:41:31.451Z,7.97
2023-02-03T05:44:18.128Z,12.60
2023-02-03T05:47:05.429Z,17.55
2023-02-03T05:49:52.186Z,12.65
2023-02-03T05:52:38.450Z,11.70
2023-02-03T05:55:26.357Z,11.80
2023-02-03T05:58:13.282Z,12.27
2023-02-03T06:00:59.892Z,11.35
2023-02-03T06:03:46.928Z,14.20
2023-02-03T06:06:34.340Z,14.75
2023-02-03T06:09:21.028Z,12.70
2023-02-03T06:12:09.216Z,11.73
2023-02-03T06:14:55.684Z,7.95
2023-02-03T06:17:45.312Z,9.18
2023-02-03T06:20:31.905Z,11.02
2023-02-03T06:23:19.425Z,11.73
2023-02-03T06:26:06.501Z,11.65
2023-02-03T06:28:56.437Z,8.13
2023-02-03T06:31:43.074Z,9.77
2023-02-03T06:34:29.556Z,12.60
2023-02-03T06:37:16.465Z,13.10
2023-02-03T06:40:04.374Z,11.40
2023-02-03T06:42:51.192Z,13.10
2023-02-03T06:45:39.324Z,14.27
2023-02-03T06:48:25.875Z,13.07
2023-02-03T06:51:12.444Z,12.50
2023-02-03T06:53:59.791Z,8.95
2023-02-03T06:56:46.051Z,11.20
2023-02-03T06:59:32.672Z,11.57
2023-02-03T07:02:20.876Z,9.05
2023-02-03T07:05:08.406Z,13.75
2023-02-03T07:07:55.358Z,13.05
2023-02-03T07:10:41.919Z,9.60
2023-02-03T07:13:28.752Z,10.95
2023-02-03T07:16:15.764Z,8.10
2023-02-03T07:19:04.180Z,14.40
2023-02-03T07:21:50.862Z,18.02
2023-02-03T07:24:38.002Z,12.23
2023-02-03T07:27:24.440Z,15.73
2023-02-03T07:30:12.639Z,6.85
2023-02-03T07:32:59.884Z,8.55
2023-02-03T07:35:53.045Z,12.73
2023-02-03T07:38:39.609Z,20.98
2023-02-03T07:41:26.310Z,12.73
2023-02-03T07:44:13.080Z,7.95
2023-02-03T07:46:59.626Z,14.02
2023-02-03T07:49:46.201Z,18.67
2023-02-03T07:52:34.102Z,17.35
2023-02-03T07:55:20.701Z,10.88
2023-02-03T07:58:07.781Z,10.65
2023-02-03T08:00:54.413Z,13.52
2023-02-03T08:03:41.140Z,13.25
2023-02-03T08:06:27.641Z,8.48
2023-02-03T08:09:15.559Z,14.77
2023-02-03T08:12:02.460Z,13.43
2023-02-03T08:14:48.866Z,13.07
2023-02-03T08:17:35.308Z,11.35
2023-02-03T08:20:22.547Z,11.93
2023-02-03T08:23:08.906Z,17.30
2023-02-03T08:25:56.947Z,11.00
2023-02-03T08:28:43.509Z,14.18
2023-02-03T08:31:30.261Z,13.82
2023-02-03T08:34:16.799Z,12.63
2023-02-03T08:37:03.483Z,8.68
2023-02-03T08:39:49.954Z,12.00
2023-02-03T08:42:38.105Z,16.10
2023-02-03T08:45:24.744Z,13.55
2023-02-03T08:48:11.279Z,6.47
2023-02-03T08:50:57.800Z,12.60
2023-02-03T08:53:44.631Z,10.27
2023-02-03T08:56:31.186Z,9.07
2023-02-03T08:59:20.006Z,11.45
2023-02-03T09:02:07.665Z,14.07
2023-02-03T09:04:54.380Z,9.07
2023-02-03T09:07:41.032Z,11.60
2023-02-03T09:10:28.050Z,11.32
2023-02-03T09:13:14.912Z,13.82
2023-02-03T09:16:02.898Z,7.13
2023-02-03T09:18:49.975Z,11.73
2023-02-03T09:21:44.711Z,14.00
2023-02-03T09:24:34.617Z,13.32
2023-02-03T09:27:21.310Z,13.13
2023-02-03T09:30:08.780Z,10.13
2023-02-03T09:32:56.623Z,9.98
2023-02-03T09:35:43.254Z,19.00
2023-02-03T09:38:30.208Z,12.80
2023-02-03T09:41:30.997Z,15.35
2023-02-03T09:44:22.789Z,9.07
2023-02-03T09:47:16.507Z,17.50
2023-02-03T09:50:08.469Z,10.77
2023-02-03T09:52:56.661Z,10.00
2023-02-03T09:55:45.932Z,12.50
2023-02-03T09:58:35.388Z,10.05
2023-02-03T10:01:25.387Z,5.55
2023-02-03T10:04:24.541Z,13.07
2023-02-03T10:07:20.301Z,8.10
2023-02-03T10:10:16.971Z,13.02
2023-02-03T10:13:24.219Z,9.15
2023-02-03T10:16:26.534Z,13.43
2023-02-03T10:19:17.822Z,6.88
2023-02-03T10:22:07.151Z,6.85
2023-02-03T10:25:00.165Z,12.80
2023-02-03T10:27:47.042Z,13.40
2023-02-03T10:30:45.338Z,8.73
2023-02-03T10:33:34.472Z,13.13
2023-02-03T10:36:22.480Z,9.80
2023-02-03T10:39:21.040Z,10.00
2023-02-03T10:42:11.874Z,10.13
2023-02-03T10:45:00.054Z,12.15
2023-02-03T10:47:51.481Z,12.05
2023-02-03T10:50:45.266Z,13.45
2023-02-03T10:53:35.298Z,8.48
2023-02-03T10:56:26.365Z,7.47
2023-02-03T10:59:29.614Z,6.95
2023-02-03T11:02:25.654Z,11.73
2023-02-03T11:05:21.709Z,14.57
2023-02-03T11:08:15.865Z,10.00
2023-02-03T11:11:06.864Z,11.57
2023-02-03T11:13:55.733Z,9.77
2023-02-03T11:16:47.269Z,13.57
2023-02-03T11:19:33.990Z,7.13
2023-02-03T11:22:32.561Z,5.80
2023-02-03T11:25:25.901Z,7.95
2023-02-03T11:28:14.372Z,12.13
2023-02-03T11:31:01.099Z,5.13
2023-02-03T11:33:56.134Z,5.03
2023-02-03T11:36:43.179Z,6.53
2023-02-03T11:39:35.582Z,9.38
2023-02-03T11:42:23.598Z,5.50
2023-02-03T11:45:15.404Z,9.90
2023-02-03T11:48:07.551Z,6.00
2023-02-03T11:51:02.019Z,4.93
2023-02-03T11:54:03.526Z,12.02
2023-02-03T11:57:09.602Z,6.78
2023-02-03T12:00:05.664Z,5.65
2023-02-03T12:03:32.873Z,8.45
2023-02-03T12:06:50.802Z,6.97
2023-02-03T12:09:51.903Z,9.23
2023-02-03T12:12:49.698Z,7.68
2023-02-03T12:15:52.585Z,9.48
2023-02-03T12:18:51.265Z,4.57
2023-02-03T12:21:47.486Z,9.32
2023-02-03T12:24:44.184Z,6.78
2023-02-03T12:27:42.700Z,8.68
2023-02-03T12:30:36.216Z,7.85
2023-02-03T12:33:27.687Z,8.32
2023-02-03T12:36:19.690Z,8.43
2023-02-03T12:39:18.981Z,6.35
2023-02-03T12:42:13.994Z,4.97
2023-02-03T12:45:06.790Z,5.20
2023-02-03T12:47:57.832Z,9.38
2023-02-03T12:50:50.340Z,8.15
2023-02-03T12:53:42.616Z,6.63
2023-02-03T12:56:36.740Z,6.07
2023-02-03T12:59:26.786Z,11.48
2023-02-03T13:02:20.194Z,6.65
2023-02-03T13:05:17.158Z,13.13
2023-02-03T13:08:13.058Z,11.27
2023-02-03T13:11:12.923Z,13.10
2023-02-03T13:14:06.911Z,12.95
2023-02-03T13:16:58.774Z,14.80
2023-02-03T13:19:48.869Z,10.77
2023-02-03T13:22:35.570Z,11.70
2023-02-03T13:25:26.815Z,11.55
2023-02-03T13:28:24.484Z,11.35
2023-02-03T13:31:25.186Z,16.15
2023-02-03T13:40:22.149Z,10.80
2023-02-03T13:43:22.976Z,11.20
2023-02-03T13:46:26.708Z,12.55
2023-02-03T13:49:24.414Z,13.68
2023-02-03T13:52:26.039Z,10.38
2023-02-03T13:55:29.398Z,11.55
2023-02-03T13:58:27.663Z,14.95
2023-02-03T14:01:33.791Z,10.75
2023-02-03T14:04:51.849Z,12.38
2023-02-03T14:07:40.542Z,14.82
2023-02-03T14:10:27.258Z,12.60
2023-02-03T14:13:21.434Z,20.92
2023-02-03T14:16:16.433Z,15.52
2023-02-03T14:19:05.033Z,17.80
2023-02-03T14:21:55.581Z,22.58
2023-02-03T14:24:46.541Z,12.43
2023-02-03T14:27:33.683Z,16.15
2023-02-03T14:30:20.479Z,25.90
2023-02-03T14:33:07.042Z,12.98
2023-02-03T14:35:55.091Z,16.67
2023-02-03T14:38:42.556Z,19.60
2023-02-03T14:41:41.512Z,20.73
2023-02-03T14:44:36.943Z,16.17
2023-02-03T14:47:36.246Z,14.30
2023-02-03T14:50:35.976Z,15.50
2023-02-03T14:53:38.391Z,17.02
2023-02-03T14:56:55.737Z,14.80
2023-02-03T14:59:45.879Z,17.48
2023-02-03T15:02:34.944Z,16.98
2023-02-03T15:05:39.942Z,29.05
2023-02-03T15:08:49.136Z,13.05
2023-02-03T15:11:35.759Z,16.77
2023-02-03T15:14:25.308Z,21.42
2023-02-03T15:17:24.519Z,16.63
2023-02-03T15:20:32.071Z,19.23
2023-02-03T15:23:21.496Z,21.80
2023-02-03T15:26:14.998Z,17.75
2023-02-03T15:29:03.444Z,16.95
2023-02-03T15:31:55.182Z,13.43
2023-02-03T15:34:45.917Z,23.70
2023-02-03T15:37:38.686Z,12.02
2023-02-03T15:40:39.299Z,19.95
2023-02-03T15:43:32.773Z,26.05
2023-02-03T15:46:25.594Z,19.42
2023-02-03T15:49:18.918Z,24.27
2023-02-03T15:52:11.946Z,25.45
2023-02-03T15:55:07.589Z,35.10
2023-02-03T15:57:54.325Z,19.73
2023-02-03T16:00:42.279Z,22.35
2023-02-03T16:03:35.079Z,26.90
2023-02-03T16:06:27.743Z,14.30
2023-02-03T16:09:34.499Z,17.60
2023-02-03T16:12:24.944Z,19.70
2023-02-03T16:15:23.621Z,22.75
2023-02-03T16:18:18.450Z,18.88
2023-02-03T16:21:06.620Z,20.02
2023-02-03T16:23:53.450Z,19.52
2023-02-03T16:26:40.055Z,22.70
2023-02-03T16:29:47.679Z,19.95
2023-02-03T16:32:52.018Z,19.45
2023-02-03T16:35:57.818Z,26.63
2023-02-03T16:39:03.847Z,19.50
2023-02-03T16:42:08.195Z,21.05
2023-02-03T16:45:12.721Z,23.73
2023-02-03T16:48:16.919Z,21.80
2023-02-03T16:51:08.232Z,28.95
2023-02-03T16:53:54.727Z,20.83
2023-02-03T16:56:41.628Z,20.38
2023-02-03T16:59:28.506Z,21.48
2023-02-03T17:02:16.156Z,16.98
2023-02-03T17:05:03.211Z,24.25
2023-02-03T17:07:51.323Z,21.73
2023-02-03T17:10:40.782Z,30.60
2023-02-03T17:13:27.385Z,18.67
2023-02-03T17:16:17.535Z,26.00
2023-02-03T17:19:04.363Z,23.75
2023-02-03T17:21:51.570Z,29.13
2023-02-03T17:24:40.174Z,20.95
2023-02-03T17:27:26.925Z,20.23
2023-02-03T17:30:14.847Z,27.52
2023-02-03T17:33:01.984Z,26.13
2023-02-03T17:35:48.322Z,19.05
2023-02-03T17:54:11.930Z,23.30
2023-02-03T17:56:59.976Z,20.50
2023-02-03T17:59:47.936Z,28.65
2023-02-03T18:02:34.701Z,27.00
2023-02-03T18:05:21.721Z,26.52
2023-02-03T18:08:16.248Z,20.33
2023-02-03T18:11:04.557Z,25.90
2023-02-03T18:13:52.678Z,25.38
2023-02-03T18:16:39.558Z,33.97
2023-02-03T18:19:26.059Z,27.25
2023-02-03T18:22:12.605Z,23.70
2023-02-03T18:24:59.334Z,27.08
2023-02-03T18:27:46.054Z,35.97
2023-02-03T18:30:34.388Z,28.00
2023-02-03T18:33:20.856Z,24.88
2023-02-03T18:36:08.490Z,23.73
2023-02-03T18:38:55.286Z,31.83
2023-02-03T18:41:41.960Z,25.33
2023-02-03T18:44:28.512Z,21.30
2023-02-03T18:47:16.559Z,26.85
2023-02-03T18:50:03.306Z,26.70
2023-02-03T18:52:54.514Z,19.60
2023-02-03T18:55:42.421Z,29.38
2023-02-03T18:58:29.230Z,26.50
2023-02-03T19:01:24.270Z,24.98
2023-02-03T19:04:14.051Z,34.90
2023-02-03T19:07:01.021Z,30.13
2023-02-03T19:09:48.345Z,15.85
2023-02-03T19:12:35.317Z,24.70
2023-02-03T19:15:22.118Z,22.92
2023-02-03T19:18:09.438Z,18.73
2023-02-03T19:20:57.661Z,14.52
2023-02-03T19:23:44.258Z,21.77
2023-02-03T19:26:31.503Z,19.92
2023-02-03T19:29:18.344Z,23.65
2023-02-03T19:32:05.393Z,28.40
2023-02-03T19:34:52.233Z,20.85
2023-02-03T19:37:40.287Z,29.88
2023-02-03T19:40:27.108Z,26.35
2023-02-03T19:43:14.150Z,22.48
2023-02-03T19:46:02.172Z,21.77
2023-02-03T19:48:49.309Z,27.25
2023-02-03T19:51:36.256Z,23.08
2023-02-03T19:54:24.799Z,24.08
2023-02-03T19:57:11.283Z,26.25
2023-02-03T19:59:57.904Z,22.75
2023-02-03T20:02:44.577Z,23.67
2023-02-03T20:05:31.738Z,20.75
2023-02-03T20:08:18.642Z,27.83
2023-02-03T20:11:06.735Z,31.02
2023-02-03T20:13:53.912Z,24.63
2023-02-03T20:16:40.233Z,29.73
2023-02-03T20:19:26.684Z,29.02
2023-02-03T20:22:13.294Z,24.73
2023-02-03T20:25:00.328Z,18.27
2023-02-03T20:27:48.804Z,27.95
2023-02-03T20:30:36.042Z,25.88
2023-02-03T20:33:22.700Z,30.05
2023-02-03T20:36:11.479Z,23.58
2023-02-03T20:38:58.182Z,28.92
2023-02-03T20:41:45.054Z,23.25
2023-02-03T20:44:33.421Z,28.80
2023-02-03T20:47:22.139Z,30.83
2023-02-03T20:50:15.801Z,22.05
2023-02-03T20:53:03.320Z,23.65
2023-02-03T20:55:51.304Z,26.50
2023-02-03T20:58:37.909Z,24.77
2023-02-03T21:01:26.068Z,23.48
2023-02-03T21:04:31.604Z,30.02
2023-02-03T21:07:19.056Z,22.73
2023-02-03T21:10:20.587Z,27.35
2023-02-03T21:13:20.665Z,23.05
2023-02-03T21:16:17.371Z,19.60
2023-02-03T21:19:05.922Z,20.33
2023-02-03T21:21:53.112Z,27.75
2023-02-03T21:24:42.917Z,23.17
2023-02-03T21:27:31.194Z,18.05
2023-02-03T21:30:28.245Z,25.08
2023-02-03T21:33:30.717Z,21.40
2023-02-03T21:36:21.225Z,19.05
2023-02-03T21:39:26.633Z,22.20
2023-02-03T21:45:38.473Z,22.98
2023-02-03T21:48:30.900Z,23.42
2023-02-03T21:51:20.629Z,18.63
2023-02-03T21:54:29.457Z,21.40
2023-02-03T21:57:16.349Z,11.10
2023-02-03T22:00:03.515Z,17.38
2023-02-03T22:03:00.779Z,22.00
2023-02-03T22:05:48.411Z,21.45
2023-02-03T22:08:38.870Z,20.40
2023-02-03T22:11:26.702Z,19.77
2023-02-03T22:14:14.188Z,21.70
2023-02-03T22:17:00.770Z,23.63
2023-02-03T22:19:48.571Z,19.98
2023-02-03T22:22:35.204Z,23.20
2023-02-03T22:25:21.938Z,24.48
2023-02-03T22:28:08.623Z,23.70
2023-02-03T22:30:55.158Z,20.13
2023-02-03T22:33:42.558Z,21.40
2023-02-03T22:36:30.780Z,25.77
2023-02-03T22:39:17.379Z,26.17
2023-02-03T22:42:03.959Z,16.88
2023-02-03T22:44:50.796Z,24.27
2023-02-03T22:47:37.370Z,21.17
2023-02-03T22:50:34.628Z,21.98
2023-02-03T22:53:22.897Z,20.27
2023-02-03T22:56:09.384Z,25.63
2023-02-03T22:58:55.940Z,24.52
2023-02-03T23:01:58.499Z,15.50
2023-02-03T23:04:45.168Z,20.90
2023-02-03T23:07:32.107Z,17.63
2023-02-03T23:10:22.256Z,22.05
2023-02-03T23:13:08.820Z,27.85
2023-02-03T23:15:55.663Z,27.67
2023-02-03T23:18:42.116Z,22.13
2023-02-03T23:21:28.634Z,33.95
2023-02-03T23:24:15.203Z,22.90
2023-02-03T23:27:04.076Z,19.85
2023-02-03T23:29:50.235Z,21.77
2023-02-03T23:32:36.853Z,24.77
2023-02-03T23:35:41.165Z,28.63
2023-02-03T23:38:27.737Z,20.63
2023-02-03T23:41:14.221Z,21.75
2023-02-03T23:44:02.623Z,21.20
2023-02-03T23:46:49.768Z,22.20
2023-02-03T23:49:36.124Z,24.38
2023-02-03T23:52:22.832Z,18.38
2023-02-03T23:55:12.189Z,19.77
2023-02-03T23:57:58.691Z,29.50
